Pleasantville, Iowa
Current Conditions -  °F | °C
As of 4:15 AM on Sunday 23 Nov 2014 (Local Time) from KOXV Reporting Station
Overcast Overcast  
Wind Chill: 54°   Ceiling: 800
Heat Index: 54°   Visibility: 10mi
Dew Point: 50°   Wind: 12mph
Humidity: 88%   Direction: 180°S
Pressure: 29.57"   Gusts: 18mph
Location:  41.39°N, 93.27°W
Report Text: KOXV 231015Z AUTO 18010G16KT 10SM OVC008 12/10 A2957 RMK AO2
Loading
Personal Weather Stations






























Interactive Weather Map New forecast layout! Learn more

10-Day Weather Forecast

Advertisements
Track Severe Weather on mobile